sensor_id;sensor_type;location;lat;lon;timestamp;P1;durP1;ratioP1;P2;durP2;ratioP2
4980;SDS011;2507;50.392;7.482;2023-04-24T00:01:38;1.60;;;0.70;;
4980;SDS011;2507;50.392;7.482;2023-04-24T00:04:04;1.13;;;0.73;;
4980;SDS011;2507;50.392;7.482;2023-04-24T00:06:30;1.17;;;0.77;;
4980;SDS011;2507;50.392;7.482;2023-04-24T00:09:01;0.80;;;0.60;;
4980;SDS011;2507;50.392;7.482;2023-04-24T00:11:27;1.47;;;0.50;;
4980;SDS011;2507;50.392;7.482;2023-04-24T00:13:53;1.73;;;0.70;;
4980;SDS011;2507;50.392;7.482;2023-04-24T00:16:18;0.57;;;0.57;;
4980;SDS011;2507;50.392;7.482;2023-04-24T00:18:44;1.80;;;0.80;;
4980;SDS011;2507;50.392;7.482;2023-04-24T00:21:10;1.53;;;0.80;;
4980;SDS011;2507;50.392;7.482;2023-04-24T00:23:35;0.60;;;0.60;;
4980;SDS011;2507;50.392;7.482;2023-04-24T00:26:00;2.53;;;0.70;;
4980;SDS011;2507;50.392;7.482;2023-04-24T00:28:26;0.70;;;0.60;;
4980;SDS011;2507;50.392;7.482;2023-04-24T00:30:51;0.60;;;0.60;;
4980;SDS011;2507;50.392;7.482;2023-04-24T00:33:16;1.27;;;0.80;;
4980;SDS011;2507;50.392;7.482;2023-04-24T00:35:41;1.50;;;0.67;;
4980;SDS011;2507;50.392;7.482;2023-04-24T00:38:07;1.53;;;1.00;;
4980;SDS011;2507;50.392;7.482;2023-04-24T00:40:32;0.87;;;0.87;;
4980;SDS011;2507;50.392;7.482;2023-04-24T00:42:57;1.53;;;0.60;;
4980;SDS011;2507;50.392;7.482;2023-04-24T00:45:23;0.77;;;0.77;;
4980;SDS011;2507;50.392;7.482;2023-04-24T00:47:48;2.20;;;0.90;;
4980;SDS011;2507;50.392;7.482;2023-04-24T00:50:15;0.70;;;0.57;;
4980;SDS011;2507;50.392;7.482;2023-04-24T00:52:41;2.57;;;0.60;;
4980;SDS011;2507;50.392;7.482;2023-04-24T00:55:06;2.10;;;0.50;;
4980;SDS011;2507;50.392;7.482;2023-04-24T00:57:32;0.70;;;0.40;;
4980;SDS011;2507;50.392;7.482;2023-04-24T00:59:57;0.80;;;0.40;;
4980;SDS011;2507;50.392;7.482;2023-04-24T01:02:23;3.33;;;0.67;;
4980;SDS011;2507;50.392;7.482;2023-04-24T01:04:50;0.70;;;0.60;;
4980;SDS011;2507;50.392;7.482;2023-04-24T01:07:17;1.30;;;0.50;;
4980;SDS011;2507;50.392;7.482;2023-04-24T01:09:45;0.70;;;0.50;;
4980;SDS011;2507;50.392;7.482;2023-04-24T01:12:13;0.50;;;0.50;;
4980;SDS011;2507;50.392;7.482;2023-04-24T01:14:40;1.13;;;0.50;;
4980;SDS011;2507;50.392;7.482;2023-04-24T01:17:05;0.53;;;0.53;;
4980;SDS011;2507;50.392;7.482;2023-04-24T01:19:31;0.50;;;0.47;;
4980;SDS011;2507;50.392;7.482;2023-04-24T01:21:57;0.97;;;0.50;;
4980;SDS011;2507;50.392;7.482;2023-04-24T01:24:24;0.40;;;0.37;;
4980;SDS011;2507;50.392;7.482;2023-04-24T01:26:49;1.50;;;0.70;;
4980;SDS011;2507;50.392;7.482;2023-04-24T01:29:15;0.60;;;0.60;;
4980;SDS011;2507;50.392;7.482;2023-04-24T01:31:40;0.60;;;0.60;;
4980;SDS011;2507;50.392;7.482;2023-04-24T01:34:06;1.13;;;0.97;;
4980;SDS011;2507;50.392;7.482;2023-04-24T01:36:33;2.10;;;0.57;;
4980;SDS011;2507;50.392;7.482;2023-04-24T01:39:00;0.60;;;0.60;;
4980;SDS011;2507;50.392;7.482;2023-04-24T01:41:25;1.20;;;0.53;;
4980;SDS011;2507;50.392;7.482;2023-04-24T01:43:50;2.70;;;0.50;;
4980;SDS011;2507;50.392;7.482;2023-04-24T01:46:16;0.60;;;0.60;;
4980;SDS011;2507;50.392;7.482;2023-04-24T01:48:41;0.77;;;0.60;;
4980;SDS011;2507;50.392;7.482;2023-04-24T01:51:06;1.00;;;0.90;;
4980;SDS011;2507;50.392;7.482;2023-04-24T01:53:32;0.90;;;0.90;;
4980;SDS011;2507;50.392;7.482;2023-04-24T01:55:57;4.20;;;0.80;;
4980;SDS011;2507;50.392;7.482;2023-04-24T01:58:23;0.90;;;0.90;;
4980;SDS011;2507;50.392;7.482;2023-04-24T02:00:48;1.43;;;0.87;;
4980;SDS011;2507;50.392;7.482;2023-04-24T02:03:13;1.00;;;1.00;;
4980;SDS011;2507;50.392;7.482;2023-04-24T02:05:38;1.07;;;1.07;;
4980;SDS011;2507;50.392;7.482;2023-04-24T02:08:04;1.37;;;1.10;;
4980;SDS011;2507;50.392;7.482;2023-04-24T02:10:29;0.80;;;0.80;;
4980;SDS011;2507;50.392;7.482;2023-04-24T02:12:54;3.90;;;0.97;;
4980;SDS011;2507;50.392;7.482;2023-04-24T02:15:20;1.03;;;1.03;;
4980;SDS011;2507;50.392;7.482;2023-04-24T02:17:45;1.07;;;1.00;;
4980;SDS011;2507;50.392;7.482;2023-04-24T02:20:10;1.37;;;1.20;;
4980;SDS011;2507;50.392;7.482;2023-04-24T02:22:36;1.10;;;1.00;;
4980;SDS011;2507;50.392;7.482;2023-04-24T02:25:01;2.20;;;1.27;;
4980;SDS011;2507;50.392;7.482;2023-04-24T02:27:27;1.30;;;1.30;;
4980;SDS011;2507;50.392;7.482;2023-04-24T02:29:52;1.43;;;1.43;;
4980;SDS011;2507;50.392;7.482;2023-04-24T02:32:17;1.60;;;1.50;;
4980;SDS011;2507;50.392;7.482;2023-04-24T02:34:43;1.77;;;1.67;;
4980;SDS011;2507;50.392;7.482;2023-04-24T02:37:08;1.50;;;1.40;;
4980;SDS011;2507;50.392;7.482;2023-04-24T02:39:33;1.83;;;1.73;;
4980;SDS011;2507;50.392;7.482;2023-04-24T02:41:58;2.47;;;1.90;;
4980;SDS011;2507;50.392;7.482;2023-04-24T02:44:24;1.93;;;1.83;;
4980;SDS011;2507;50.392;7.482;2023-04-24T02:46:50;3.53;;;2.23;;
4980;SDS011;2507;50.392;7.482;2023-04-24T02:49:15;1.67;;;1.57;;
4980;SDS011;2507;50.392;7.482;2023-04-24T02:51:40;2.90;;;2.67;;
4980;SDS011;2507;50.392;7.482;2023-04-24T02:54:06;3.33;;;2.87;;
4980;SDS011;2507;50.392;7.482;2023-04-24T02:56:33;2.63;;;2.53;;
4980;SDS011;2507;50.392;7.482;2023-04-24T02:58:59;2.90;;;2.80;;
4980;SDS011;2507;50.392;7.482;2023-04-24T03:01:24;2.73;;;2.50;;
4980;SDS011;2507;50.392;7.482;2023-04-24T03:03:50;3.13;;;2.93;;
4980;SDS011;2507;50.392;7.482;2023-04-24T03:06:15;3.03;;;2.93;;
4980;SDS011;2507;50.392;7.482;2023-04-24T03:08:40;3.07;;;2.87;;
4980;SDS011;2507;50.392;7.482;2023-04-24T03:11:06;3.00;;;2.90;;
4980;SDS011;2507;50.392;7.482;2023-04-24T03:13:31;2.83;;;2.63;;
4980;SDS011;2507;50.392;7.482;2023-04-24T03:15:56;2.90;;;2.80;;
4980;SDS011;2507;50.392;7.482;2023-04-24T03:18:21;4.00;;;3.70;;
4980;SDS011;2507;50.392;7.482;2023-04-24T03:20:47;3.83;;;3.60;;
4980;SDS011;2507;50.392;7.482;2023-04-24T03:23:12;3.30;;;3.10;;
4980;SDS011;2507;50.392;7.482;2023-04-24T03:25:37;4.73;;;4.33;;
4980;SDS011;2507;50.392;7.482;2023-04-24T03:28:03;3.87;;;3.67;;
4980;SDS011;2507;50.392;7.482;2023-04-24T03:30:29;3.97;;;3.67;;
4980;SDS011;2507;50.392;7.482;2023-04-24T03:32:54;3.30;;;3.10;;
4980;SDS011;2507;50.392;7.482;2023-04-24T03:35:19;4.00;;;3.70;;
4980;SDS011;2507;50.392;7.482;2023-04-24T03:37:46;3.70;;;3.40;;
4980;SDS011;2507;50.392;7.482;2023-04-24T03:40:11;3.60;;;3.40;;
4980;SDS011;2507;50.392;7.482;2023-04-24T03:42:36;3.73;;;3.53;;
4980;SDS011;2507;50.392;7.482;2023-04-24T03:45:04;6.00;;;4.47;;
4980;SDS011;2507;50.392;7.482;2023-04-24T03:47:30;3.73;;;3.43;;
4980;SDS011;2507;50.392;7.482;2023-04-24T03:49:56;3.90;;;3.60;;
4980;SDS011;2507;50.392;7.482;2023-04-24T03:52:21;3.87;;;3.67;;
4980;SDS011;2507;50.392;7.482;2023-04-24T03:54:46;3.40;;;3.20;;
4980;SDS011;2507;50.392;7.482;2023-04-24T03:57:11;4.37;;;3.90;;
4980;SDS011;2507;50.392;7.482;2023-04-24T03:59:37;4.40;;;4.00;;
4980;SDS011;2507;50.392;7.482;2023-04-24T04:02:02;4.30;;;3.50;;
4980;SDS011;2507;50.392;7.482;2023-04-24T04:04:27;3.70;;;3.50;;
4980;SDS011;2507;50.392;7.482;2023-04-24T04:06:53;4.13;;;3.90;;
4980;SDS011;2507;50.392;7.482;2023-04-24T04:09:18;3.90;;;3.60;;
4980;SDS011;2507;50.392;7.482;2023-04-24T04:11:43;4.70;;;4.23;;
4980;SDS011;2507;50.392;7.482;2023-04-24T04:14:09;4.13;;;3.73;;
4980;SDS011;2507;50.392;7.482;2023-04-24T04:16:34;7.20;;;4.27;;
4980;SDS011;2507;50.392;7.482;2023-04-24T04:19:01;4.87;;;4.47;;
4980;SDS011;2507;50.392;7.482;2023-04-24T04:21:27;4.80;;;4.43;;
4980;SDS011;2507;50.392;7.482;2023-04-24T04:23:53;5.43;;;4.63;;
4980;SDS011;2507;50.392;7.482;2023-04-24T04:26:18;5.20;;;4.70;;
4980;SDS011;2507;50.392;7.482;2023-04-24T04:28:44;4.83;;;4.53;;
4980;SDS011;2507;50.392;7.482;2023-04-24T04:31:09;4.30;;;4.00;;
4980;SDS011;2507;50.392;7.482;2023-04-24T04:33:34;4.33;;;4.03;;
4980;SDS011;2507;50.392;7.482;2023-04-24T04:36:01;4.70;;;4.40;;
4980;SDS011;2507;50.392;7.482;2023-04-24T04:38:26;4.13;;;3.93;;
4980;SDS011;2507;50.392;7.482;2023-04-24T04:40:55;4.83;;;4.43;;
4980;SDS011;2507;50.392;7.482;2023-04-24T04:43:21;4.70;;;4.30;;
4980;SDS011;2507;50.392;7.482;2023-04-24T04:45:47;4.40;;;4.10;;
4980;SDS011;2507;50.392;7.482;2023-04-24T04:48:13;4.27;;;4.07;;
4980;SDS011;2507;50.392;7.482;2023-04-24T04:50:39;4.43;;;4.03;;
4980;SDS011;2507;50.392;7.482;2023-04-24T04:53:04;5.40;;;4.27;;
4980;SDS011;2507;50.392;7.482;2023-04-24T04:55:30;4.63;;;4.27;;
4980;SDS011;2507;50.392;7.482;2023-04-24T04:57:55;5.33;;;4.03;;
4980;SDS011;2507;50.392;7.482;2023-04-24T05:00:21;4.30;;;4.00;;
4980;SDS011;2507;50.392;7.482;2023-04-24T05:02:46;3.40;;;3.30;;
4980;SDS011;2507;50.392;7.482;2023-04-24T05:05:12;4.00;;;3.63;;
4980;SDS011;2507;50.392;7.482;2023-04-24T05:07:38;4.43;;;4.00;;
4980;SDS011;2507;50.392;7.482;2023-04-24T05:10:03;3.77;;;3.57;;
4980;SDS011;2507;50.392;7.482;2023-04-24T05:12:29;3.80;;;3.60;;
4980;SDS011;2507;50.392;7.482;2023-04-24T05:14:54;4.33;;;3.93;;
4980;SDS011;2507;50.392;7.482;2023-04-24T05:17:19;4.73;;;4.43;;
4980;SDS011;2507;50.392;7.482;2023-04-24T05:19:45;3.90;;;3.70;;
4980;SDS011;2507;50.392;7.482;2023-04-24T05:22:11;4.27;;;4.03;;
4980;SDS011;2507;50.392;7.482;2023-04-24T05:24:36;4.40;;;4.10;;
4980;SDS011;2507;50.392;7.482;2023-04-24T05:27:03;4.57;;;4.27;;
4980;SDS011;2507;50.392;7.482;2023-04-24T05:29:29;5.07;;;4.40;;
4980;SDS011;2507;50.392;7.482;2023-04-24T05:31:58;5.10;;;4.70;;
4980;SDS011;2507;50.392;7.482;2023-04-24T05:34:24;4.90;;;4.50;;
4980;SDS011;2507;50.392;7.482;2023-04-24T05:36:49;5.10;;;4.53;;
4980;SDS011;2507;50.392;7.482;2023-04-24T05:39:15;4.97;;;4.50;;
4980;SDS011;2507;50.392;7.482;2023-04-24T05:41:41;8.63;;;5.33;;
4980;SDS011;2507;50.392;7.482;2023-04-24T05:44:06;5.37;;;5.00;;
4980;SDS011;2507;50.392;7.482;2023-04-24T05:46:31;5.93;;;4.97;;
4980;SDS011;2507;50.392;7.482;2023-04-24T05:48:56;5.97;;;5.37;;
4980;SDS011;2507;50.392;7.482;2023-04-24T05:51:22;6.47;;;5.87;;
4980;SDS011;2507;50.392;7.482;2023-04-24T05:53:48;5.67;;;5.27;;
4980;SDS011;2507;50.392;7.482;2023-04-24T05:56:13;6.00;;;5.40;;
4980;SDS011;2507;50.392;7.482;2023-04-24T05:58:38;7.83;;;5.17;;
4980;SDS011;2507;50.392;7.482;2023-04-24T06:01:04;6.57;;;6.07;;
4980;SDS011;2507;50.392;7.482;2023-04-24T06:03:29;6.73;;;6.17;;
4980;SDS011;2507;50.392;7.482;2023-04-24T06:05:55;6.23;;;5.73;;
4980;SDS011;2507;50.392;7.482;2023-04-24T06:08:20;7.13;;;5.67;;
4980;SDS011;2507;50.392;7.482;2023-04-24T06:10:45;6.57;;;6.00;;
4980;SDS011;2507;50.392;7.482;2023-04-24T06:13:10;5.93;;;5.47;;
4980;SDS011;2507;50.392;7.482;2023-04-24T06:15:37;7.03;;;6.33;;
4980;SDS011;2507;50.392;7.482;2023-04-24T06:18:02;8.13;;;6.40;;
4980;SDS011;2507;50.392;7.482;2023-04-24T06:20:28;6.83;;;6.20;;
4980;SDS011;2507;50.392;7.482;2023-04-24T06:22:53;6.70;;;6.10;;
4980;SDS011;2507;50.392;7.482;2023-04-24T06:25:19;7.27;;;5.93;;
4980;SDS011;2507;50.392;7.482;2023-04-24T06:27:44;5.03;;;4.70;;
4980;SDS011;2507;50.392;7.482;2023-04-24T06:30:10;6.30;;;5.70;;
4980;SDS011;2507;50.392;7.482;2023-04-24T06:32:35;6.17;;;5.77;;
4980;SDS011;2507;50.392;7.482;2023-04-24T06:35:01;5.83;;;5.33;;
4980;SDS011;2507;50.392;7.482;2023-04-24T06:37:26;6.60;;;6.10;;
4980;SDS011;2507;50.392;7.482;2023-04-24T06:39:52;6.23;;;5.80;;
4980;SDS011;2507;50.392;7.482;2023-04-24T06:42:17;5.87;;;5.47;;
4980;SDS011;2507;50.392;7.482;2023-04-24T06:44:42;6.80;;;6.30;;
4980;SDS011;2507;50.392;7.482;2023-04-24T06:47:08;6.90;;;5.80;;
4980;SDS011;2507;50.392;7.482;2023-04-24T06:49:35;6.80;;;6.20;;
4980;SDS011;2507;50.392;7.482;2023-04-24T06:52:01;8.23;;;5.87;;
4980;SDS011;2507;50.392;7.482;2023-04-24T06:54:27;6.30;;;5.80;;
4980;SDS011;2507;50.392;7.482;2023-04-24T06:56:52;5.90;;;5.40;;
4980;SDS011;2507;50.392;7.482;2023-04-24T06:59:17;6.20;;;5.70;;
4980;SDS011;2507;50.392;7.482;2023-04-24T07:01:42;6.10;;;5.60;;
4980;SDS011;2507;50.392;7.482;2023-04-24T07:04:08;6.20;;;5.70;;
4980;SDS011;2507;50.392;7.482;2023-04-24T07:06:33;9.40;;;6.20;;
4980;SDS011;2507;50.392;7.482;2023-04-24T07:09:00;6.47;;;5.97;;
4980;SDS011;2507;50.392;7.482;2023-04-24T07:11:26;6.67;;;6.07;;
4980;SDS011;2507;50.392;7.482;2023-04-24T07:13:54;5.33;;;4.90;;
4980;SDS011;2507;50.392;7.482;2023-04-24T07:16:19;5.93;;;5.43;;
4980;SDS011;2507;50.392;7.482;2023-04-24T07:18:44;6.40;;;5.70;;
4980;SDS011;2507;50.392;7.482;2023-04-24T07:21:10;5.50;;;5.10;;
4980;SDS011;2507;50.392;7.482;2023-04-24T07:23:36;6.30;;;5.80;;
4980;SDS011;2507;50.392;7.482;2023-04-24T07:26:01;5.83;;;5.43;;
4980;SDS011;2507;50.392;7.482;2023-04-24T07:28:26;7.63;;;5.47;;
4980;SDS011;2507;50.392;7.482;2023-04-24T07:30:52;5.17;;;4.73;;
4980;SDS011;2507;50.392;7.482;2023-04-24T07:33:18;5.40;;;4.90;;
4980;SDS011;2507;50.392;7.482;2023-04-24T07:35:44;5.73;;;5.23;;
4980;SDS011;2507;50.392;7.482;2023-04-24T07:38:09;4.63;;;4.37;;
4980;SDS011;2507;50.392;7.482;2023-04-24T07:40:35;5.27;;;4.77;;
4980;SDS011;2507;50.392;7.482;2023-04-24T07:43:00;4.47;;;4.17;;
4980;SDS011;2507;50.392;7.482;2023-04-24T07:45:25;5.70;;;5.30;;
4980;SDS011;2507;50.392;7.482;2023-04-24T07:47:52;6.47;;;5.33;;
4980;SDS011;2507;50.392;7.482;2023-04-24T07:50:18;5.00;;;4.60;;
4980;SDS011;2507;50.392;7.482;2023-04-24T07:52:43;4.10;;;3.80;;
4980;SDS011;2507;50.392;7.482;2023-04-24T07:55:09;4.00;;;3.70;;
4980;SDS011;2507;50.392;7.482;2023-04-24T07:57:34;3.97;;;3.77;;
4980;SDS011;2507;50.392;7.482;2023-04-24T08:00:00;5.03;;;3.73;;
4980;SDS011;2507;50.392;7.482;2023-04-24T08:02:25;4.10;;;3.70;;
4980;SDS011;2507;50.392;7.482;2023-04-24T08:04:54;3.63;;;3.43;;
4980;SDS011;2507;50.392;7.482;2023-04-24T08:07:19;4.10;;;3.90;;
4980;SDS011;2507;50.392;7.482;2023-04-24T08:09:45;3.70;;;3.50;;
4980;SDS011;2507;50.392;7.482;2023-04-24T08:12:10;4.17;;;3.87;;
4980;SDS011;2507;50.392;7.482;2023-04-24T08:14:35;2.77;;;2.67;;
4980;SDS011;2507;50.392;7.482;2023-04-24T08:17:01;4.53;;;3.80;;
4980;SDS011;2507;50.392;7.482;2023-04-24T08:19:27;2.83;;;2.70;;
4980;SDS011;2507;50.392;7.482;2023-04-24T08:21:52;3.00;;;2.90;;
4980;SDS011;2507;50.392;7.482;2023-04-24T08:24:17;2.97;;;2.87;;
4980;SDS011;2507;50.392;7.482;2023-04-24T08:26:43;4.57;;;3.27;;
4980;SDS011;2507;50.392;7.482;2023-04-24T08:29:08;3.50;;;3.30;;
4980;SDS011;2507;50.392;7.482;2023-04-24T08:31:34;3.63;;;3.43;;
4980;SDS011;2507;50.392;7.482;2023-04-24T08:34:00;4.47;;;3.30;;
4980;SDS011;2507;50.392;7.482;2023-04-24T08:36:25;8.10;;;4.00;;
4980;SDS011;2507;50.392;7.482;2023-04-24T08:38:51;4.80;;;3.43;;
4980;SDS011;2507;50.392;7.482;2023-04-24T08:41:16;3.10;;;2.90;;
4980;SDS011;2507;50.392;7.482;2023-04-24T08:43:43;4.33;;;4.03;;
4980;SDS011;2507;50.392;7.482;2023-04-24T08:46:08;3.17;;;3.00;;
4980;SDS011;2507;50.392;7.482;2023-04-24T08:48:35;5.40;;;5.00;;
4980;SDS011;2507;50.392;7.482;2023-04-24T08:51:01;3.70;;;3.40;;
4980;SDS011;2507;50.392;7.482;2023-04-24T08:53:27;3.23;;;3.03;;
4980;SDS011;2507;50.392;7.482;2023-04-24T08:55:54;3.53;;;3.33;;
4980;SDS011;2507;50.392;7.482;2023-04-24T08:58:21;3.67;;;3.37;;
4980;SDS011;2507;50.392;7.482;2023-04-24T09:00:50;2.90;;;2.53;;
4980;SDS011;2507;50.392;7.482;2023-04-24T09:03:16;2.80;;;2.70;;
4980;SDS011;2507;50.392;7.482;2023-04-24T09:05:43;3.17;;;2.40;;
4980;SDS011;2507;50.392;7.482;2023-04-24T09:08:10;2.97;;;2.77;;
4980;SDS011;2507;50.392;7.482;2023-04-24T09:10:38;3.03;;;2.67;;
4980;SDS011;2507;50.392;7.482;2023-04-24T09:13:04;2.50;;;2.40;;
4980;SDS011;2507;50.392;7.482;2023-04-24T09:15:30;2.67;;;2.40;;
4980;SDS011;2507;50.392;7.482;2023-04-24T09:17:55;2.20;;;2.10;;
4980;SDS011;2507;50.392;7.482;2023-04-24T09:20:21;1.23;;;1.23;;
4980;SDS011;2507;50.392;7.482;2023-04-24T09:22:46;1.50;;;1.50;;
4980;SDS011;2507;50.392;7.482;2023-04-24T09:25:12;1.53;;;1.53;;
4980;SDS011;2507;50.392;7.482;2023-04-24T09:27:41;1.63;;;1.63;;
4980;SDS011;2507;50.392;7.482;2023-04-24T09:30:09;2.63;;;1.60;;
4980;SDS011;2507;50.392;7.482;2023-04-24T09:32:34;1.77;;;1.70;;
4980;SDS011;2507;50.392;7.482;2023-04-24T09:37:36;1.30;;;1.30;;
4980;SDS011;2507;50.392;7.482;2023-04-24T09:40:16;1.33;;;1.00;;
4980;SDS011;2507;50.392;7.482;2023-04-24T09:45:16;0.90;;;0.80;;
4980;SDS011;2507;50.392;7.482;2023-04-24T09:47:41;1.17;;;1.17;;
4980;SDS011;2507;50.392;7.482;2023-04-24T09:50:10;1.10;;;1.10;;
4980;SDS011;2507;50.392;7.482;2023-04-24T09:52:39;0.63;;;0.63;;
4980;SDS011;2507;50.392;7.482;2023-04-24T09:55:10;1.00;;;1.00;;
4980;SDS011;2507;50.392;7.482;2023-04-24T09:57:53;0.97;;;0.93;;
4980;SDS011;2507;50.392;7.482;2023-04-24T10:02:50;0.70;;;0.70;;
4980;SDS011;2507;50.392;7.482;2023-04-24T10:05:19;1.27;;;1.27;;
4980;SDS011;2507;50.392;7.482;2023-04-24T10:07:48;0.90;;;0.90;;
4980;SDS011;2507;50.392;7.482;2023-04-24T10:10:13;1.47;;;0.70;;
4980;SDS011;2507;50.392;7.482;2023-04-24T10:12:39;0.80;;;0.80;;
4980;SDS011;2507;50.392;7.482;2023-04-24T10:15:05;1.93;;;0.70;;
4980;SDS011;2507;50.392;7.482;2023-04-24T10:17:31;0.97;;;0.97;;
4980;SDS011;2507;50.392;7.482;2023-04-24T10:19:57;1.10;;;1.10;;
4980;SDS011;2507;50.392;7.482;2023-04-24T10:22:25;3.73;;;1.10;;
4980;SDS011;2507;50.392;7.482;2023-04-24T10:24:51;1.10;;;1.10;;
4980;SDS011;2507;50.392;7.482;2023-04-24T10:27:17;1.40;;;1.30;;
4980;SDS011;2507;50.392;7.482;2023-04-24T10:29:45;1.20;;;1.20;;
4980;SDS011;2507;50.392;7.482;2023-04-24T10:32:12;1.63;;;1.50;;
4980;SDS011;2507;50.392;7.482;2023-04-24T10:34:38;2.10;;;2.00;;
4980;SDS011;2507;50.392;7.482;2023-04-24T10:37:03;2.37;;;2.20;;
4980;SDS011;2507;50.392;7.482;2023-04-24T10:39:28;2.73;;;2.17;;
4980;SDS011;2507;50.392;7.482;2023-04-24T10:41:55;1.93;;;1.83;;
4980;SDS011;2507;50.392;7.482;2023-04-24T10:44:24;2.23;;;1.90;;
4980;SDS011;2507;50.392;7.482;2023-04-24T10:46:52;2.43;;;2.30;;
4980;SDS011;2507;50.392;7.482;2023-04-24T10:49:27;2.57;;;2.37;;
4980;SDS011;2507;50.392;7.482;2023-04-24T10:51:53;2.93;;;2.83;;
4980;SDS011;2507;50.392;7.482;2023-04-24T10:54:25;2.93;;;2.63;;
4980;SDS011;2507;50.392;7.482;2023-04-24T10:56:53;3.30;;;3.00;;
4980;SDS011;2507;50.392;7.482;2023-04-24T10:59:39;4.27;;;3.30;;
4980;SDS011;2507;50.392;7.482;2023-04-24T11:02:04;4.07;;;3.57;;
4980;SDS011;2507;50.392;7.482;2023-04-24T11:04:33;4.50;;;3.70;;
4980;SDS011;2507;50.392;7.482;2023-04-24T11:07:00;4.17;;;3.83;;
4980;SDS011;2507;50.392;7.482;2023-04-24T11:09:29;5.90;;;4.03;;
4980;SDS011;2507;50.392;7.482;2023-04-24T11:12:03;7.77;;;4.80;;
4980;SDS011;2507;50.392;7.482;2023-04-24T11:22:33;5.33;;;4.73;;
4980;SDS011;2507;50.392;7.482;2023-04-24T11:25:00;5.63;;;5.13;;
4980;SDS011;2507;50.392;7.482;2023-04-24T11:27:30;6.33;;;4.57;;
4980;SDS011;2507;50.392;7.482;2023-04-24T11:32:24;5.50;;;5.10;;
4980;SDS011;2507;50.392;7.482;2023-04-24T11:34:50;5.57;;;5.07;;
4980;SDS011;2507;50.392;7.482;2023-04-24T11:37:17;3.37;;;3.10;;
4980;SDS011;2507;50.392;7.482;2023-04-24T11:39:42;4.67;;;2.60;;
4980;SDS011;2507;50.392;7.482;2023-04-24T11:42:12;3.87;;;2.73;;
4980;SDS011;2507;50.392;7.482;2023-04-24T11:44:40;3.47;;;2.80;;
4980;SDS011;2507;50.392;7.482;2023-04-24T11:47:06;4.90;;;4.50;;
4980;SDS011;2507;50.392;7.482;2023-04-24T11:49:37;4.33;;;4.03;;
4980;SDS011;2507;50.392;7.482;2023-04-24T11:52:03;3.10;;;2.90;;
4980;SDS011;2507;50.392;7.482;2023-04-24T11:54:29;2.60;;;2.40;;
4980;SDS011;2507;50.392;7.482;2023-04-24T11:56:55;2.80;;;2.70;;
4980;SDS011;2507;50.392;7.482;2023-04-24T11:59:21;3.40;;;3.20;;
4980;SDS011;2507;50.392;7.482;2023-04-24T12:01:47;4.83;;;4.43;;
4980;SDS011;2507;50.392;7.482;2023-04-24T12:04:13;5.57;;;5.07;;
4980;SDS011;2507;50.392;7.482;2023-04-24T12:06:39;7.33;;;5.10;;
4980;SDS011;2507;50.392;7.482;2023-04-24T12:09:05;5.07;;;4.67;;
4980;SDS011;2507;50.392;7.482;2023-04-24T12:11:31;6.43;;;5.00;;
4980;SDS011;2507;50.392;7.482;2023-04-24T12:13:56;6.00;;;5.40;;
4980;SDS011;2507;50.392;7.482;2023-04-24T12:16:23;5.80;;;5.20;;
4980;SDS011;2507;50.392;7.482;2023-04-24T12:18:51;5.80;;;5.30;;
4980;SDS011;2507;50.392;7.482;2023-04-24T12:21:19;5.57;;;4.60;;
4980;SDS011;2507;50.392;7.482;2023-04-24T12:23:48;5.60;;;5.10;;
4980;SDS011;2507;50.392;7.482;2023-04-24T12:26:16;5.33;;;4.93;;
4980;SDS011;2507;50.392;7.482;2023-04-24T12:28:42;8.63;;;6.00;;
4980;SDS011;2507;50.392;7.482;2023-04-24T12:31:08;6.03;;;5.33;;
4980;SDS011;2507;50.392;7.482;2023-04-24T12:35:59;6.27;;;5.73;;
4980;SDS011;2507;50.392;7.482;2023-04-24T12:38:25;5.40;;;4.90;;
4980;SDS011;2507;50.392;7.482;2023-04-24T12:41:05;5.33;;;4.80;;
4980;SDS011;2507;50.392;7.482;2023-04-24T12:43:34;7.33;;;5.23;;
4980;SDS011;2507;50.392;7.482;2023-04-24T12:46:00;5.70;;;5.20;;
4980;SDS011;2507;50.392;7.482;2023-04-24T12:48:28;5.13;;;4.73;;
4980;SDS011;2507;50.392;7.482;2023-04-24T12:50:56;6.00;;;4.90;;
4980;SDS011;2507;50.392;7.482;2023-04-24T12:53:25;7.30;;;5.10;;
4980;SDS011;2507;50.392;7.482;2023-04-24T12:55:51;5.43;;;4.93;;
4980;SDS011;2507;50.392;7.482;2023-04-24T12:58:20;5.60;;;5.00;;
4980;SDS011;2507;50.392;7.482;2023-04-24T13:00:46;5.10;;;4.60;;
4980;SDS011;2507;50.392;7.482;2023-04-24T13:03:11;6.30;;;5.33;;
4980;SDS011;2507;50.392;7.482;2023-04-24T13:05:37;5.33;;;4.57;;
4980;SDS011;2507;50.392;7.482;2023-04-24T13:08:02;6.10;;;5.07;;
4980;SDS011;2507;50.392;7.482;2023-04-24T13:10:27;6.57;;;5.23;;
4980;SDS011;2507;50.392;7.482;2023-04-24T13:12:53;7.80;;;4.53;;
4980;SDS011;2507;50.392;7.482;2023-04-24T13:15:18;8.40;;;4.80;;
4980;SDS011;2507;50.392;7.482;2023-04-24T13:17:44;4.23;;;3.70;;
4980;SDS011;2507;50.392;7.482;2023-04-24T13:20:09;4.87;;;4.37;;
4980;SDS011;2507;50.392;7.482;2023-04-24T13:22:35;8.43;;;3.07;;
4980;SDS011;2507;50.392;7.482;2023-04-24T13:25:00;5.83;;;4.33;;
4980;SDS011;2507;50.392;7.482;2023-04-24T13:27:26;4.60;;;3.90;;
4980;SDS011;2507;50.392;7.482;2023-04-24T13:29:51;3.70;;;3.27;;
4980;SDS011;2507;50.392;7.482;2023-04-24T13:32:16;4.97;;;3.77;;
4980;SDS011;2507;50.392;7.482;2023-04-24T13:34:42;5.70;;;4.00;;
4980;SDS011;2507;50.392;7.482;2023-04-24T13:37:07;7.23;;;3.80;;
4980;SDS011;2507;50.392;7.482;2023-04-24T13:39:33;4.87;;;4.47;;
4980;SDS011;2507;50.392;7.482;2023-04-24T13:41:58;6.33;;;3.67;;
4980;SDS011;2507;50.392;7.482;2023-04-24T13:44:23;5.63;;;3.57;;
4980;SDS011;2507;50.392;7.482;2023-04-24T13:46:50;8.20;;;3.60;;
4980;SDS011;2507;50.392;7.482;2023-04-24T13:49:18;3.83;;;3.53;;
4980;SDS011;2507;50.392;7.482;2023-04-24T13:51:44;4.50;;;3.73;;
4980;SDS011;2507;50.392;7.482;2023-04-24T13:54:10;3.57;;;3.27;;
4980;SDS011;2507;50.392;7.482;2023-04-24T13:56:36;4.80;;;3.60;;
4980;SDS011;2507;50.392;7.482;2023-04-24T13:59:01;4.37;;;3.97;;
4980;SDS011;2507;50.392;7.482;2023-04-24T14:01:27;6.97;;;3.90;;
4980;SDS011;2507;50.392;7.482;2023-04-24T14:03:52;3.93;;;3.53;;
4980;SDS011;2507;50.392;7.482;2023-04-24T14:06:19;3.70;;;3.50;;
4980;SDS011;2507;50.392;7.482;2023-04-24T14:08:45;4.33;;;3.80;;
4980;SDS011;2507;50.392;7.482;2023-04-24T14:11:10;6.97;;;3.60;;
4980;SDS011;2507;50.392;7.482;2023-04-24T14:13:36;8.30;;;3.90;;
4980;SDS011;2507;50.392;7.482;2023-04-24T14:16:02;5.20;;;4.10;;
4980;SDS011;2507;50.392;7.482;2023-04-24T14:18:28;5.03;;;3.73;;
4980;SDS011;2507;50.392;7.482;2023-04-24T14:20:53;14.93;;;4.80;;
4980;SDS011;2507;50.392;7.482;2023-04-24T14:23:19;4.13;;;3.83;;
4980;SDS011;2507;50.392;7.482;2023-04-24T14:25:44;6.80;;;4.50;;
4980;SDS011;2507;50.392;7.482;2023-04-24T14:28:10;7.57;;;6.47;;
4980;SDS011;2507;50.392;7.482;2023-04-24T14:30:36;6.70;;;5.30;;
4980;SDS011;2507;50.392;7.482;2023-04-24T14:33:02;5.67;;;5.17;;
4980;SDS011;2507;50.392;7.482;2023-04-24T14:35:28;7.73;;;4.90;;
4980;SDS011;2507;50.392;7.482;2023-04-24T14:37:56;5.97;;;4.97;;
4980;SDS011;2507;50.392;7.482;2023-04-24T14:40:21;4.70;;;4.30;;
4980;SDS011;2507;50.392;7.482;2023-04-24T14:42:47;6.23;;;4.80;;
4980;SDS011;2507;50.392;7.482;2023-04-24T14:45:12;10.00;;;4.53;;
4980;SDS011;2507;50.392;7.482;2023-04-24T14:47:37;6.70;;;5.23;;
4980;SDS011;2507;50.392;7.482;2023-04-24T14:50:03;5.63;;;4.57;;
4980;SDS011;2507;50.392;7.482;2023-04-24T14:52:28;5.87;;;4.33;;
4980;SDS011;2507;50.392;7.482;2023-04-24T14:54:54;5.13;;;4.73;;
4980;SDS011;2507;50.392;7.482;2023-04-24T14:57:19;4.67;;;4.10;;
4980;SDS011;2507;50.392;7.482;2023-04-24T14:59:44;4.97;;;4.50;;
4980;SDS011;2507;50.392;7.482;2023-04-24T15:02:10;6.77;;;4.37;;
4980;SDS011;2507;50.392;7.482;2023-04-24T15:04:35;5.10;;;4.63;;
4980;SDS011;2507;50.392;7.482;2023-04-24T15:07:01;7.13;;;4.77;;
4980;SDS011;2507;50.392;7.482;2023-04-24T15:09:26;4.70;;;4.30;;
4980;SDS011;2507;50.392;7.482;2023-04-24T15:11:52;5.40;;;5.00;;
4980;SDS011;2507;50.392;7.482;2023-04-24T15:14:17;5.90;;;4.27;;
4980;SDS011;2507;50.392;7.482;2023-04-24T15:16:43;6.13;;;4.97;;
4980;SDS011;2507;50.392;7.482;2023-04-24T15:19:09;8.63;;;6.03;;
4980;SDS011;2507;50.392;7.482;2023-04-24T15:21:37;6.73;;;6.03;;
4980;SDS011;2507;50.392;7.482;2023-04-24T15:24:05;7.77;;;6.20;;
4980;SDS011;2507;50.392;7.482;2023-04-24T15:26:30;6.10;;;5.60;;
4980;SDS011;2507;50.392;7.482;2023-04-24T15:28:55;8.10;;;7.13;;